Wednesday, June 29, 2016
01:56 UTC
  |  Log In   |  Register Free
Airport Search:

La Porte Municipal Airport
(T41)

La Porte Municipal Airport Diagram
No Airport Diagram Available

FAA data valid effective May 26 2016 - Jul 21 2016 (unless otherwise noted).

 
 
 
 
 
 
 
 
 
 
 
 
 
 
Current Aviation Weather for T41

Weather Summary


Current weather conditions are not available for T41 - The nearest NOAA weather station is at EFD, (6.2 nm SW from T41)

The most recent METAR observation for T41 was updated at: 12:50 UTC
METAR for T41 is not available. Closest METAR is for KHOU 11.3 nm NE
KHOU  (11.3 nm NE)   (most recent observation was updated at 29:00 UTC)
290053Z 27004KT 10SM FEW030 SCT090 BKN170 OVC250 26/24 A2995 RMK AO2 RAE23 SLP146 P0000 T02560239

KAXH  (23.7 nm NE)   (most recent observation was updated at 29:01 UTC)
290135Z AUTO 28003KT 10SM CLR 24/23 A2998 RMK AO2 LTG DSNT E T02400230

TAF for T41 is not available.
KEFD
AMD 290108Z 2901/3002 VRB06KT 9999 SCT080 QNH2994INS TEMPO 2901/2902 6000 TSRA BKN030CB BECMG 2902/2903 05006KT 9999 SCT030 QNH2992INS BECMG 2908/2909 23006KT 9999 BKN015 QNH2994INS BECMG 2914/2915 32012KT 9999 BKN020 QNH2995INS BECMG 2917/2918 33012KT 8000 -SHRA BKN020 QNH2991INS TEMPO 2918/3002 VRB12G18KT 6000 -TSRA BKN020CB TX34/2901Z TN24/2910Z AMD 290108

KHOU  (11.3 nm NE)   (most recent observation was updatred at 28:23 UTC)
282337Z 2900/2924 35008KT P6SM -RA SCT060 BKN250 FM290100 02005KT P6SM BKN250 FM291700 02007KT P6SM SCT045


KIAH  (23.8 nm SE)   (most recent observation was updatred at 28:23 UTC)
282337Z 2900/3006 VRB06KT P6SM -RA FEW015 FEW060 BKN250 FM290100 VRB04KT P6SM BKN250 FM291700 04007KT P6SM SCT045 FM300000 VRB04KT P6SM SCT250
GlobalAir.com is loading additional information.
 Current Weather at EFD
79.0 F° (26.0 C°)

West winds at 5.8 mph
Pressure:
29.97 in
Humidity:
94%
Wind:
West at 5.8 mph
Dew Point:
77.0 F° (25.0 C°)
Visibility:
7.00 mi
T41 NOAA Radar




Find All Airport Services Find A Hotel Find A Rental Car Find A Golf Course Find A Restaurant $100 Hamburger



Airport Weather Forecast for T41

Translated METAR for KEFD (0150 UTC)
METAR:
KEFD 290150Z 00000KT 10SM FEW040 SCT080 BKN170 26/25 A2999
Conditions at:
KEFD (Ellington, TX) observed 0150 UTC 28 June 2016
Temperature:
26°C (78.8°F)
Dewpoint:
25°C (77°F) [RH = 94.2]
Pressure:
29.99 inches Hg (1015.6 mb)
Winds:
from the N (000 degrees) at 0 mph (0 knots: 0 m/s)
Visibility:
10 mile(s)
Ceiling:
17,000 feet AGL
Clouds:
Few Clouds at 4,000 feet AGL
Scattered Clouds at 8,000 feet AGL
Broken Cloud Cover at 17,000 feet AGL
Remarks:

Translated TAF for KEFD (Ellington, TX) (0108 UTC)
TAF text:
KEFD 290108Z 2901/3002 VRB06KT 9999 SCT080 QNH2994INS
Forecast period:
Wednesday Jun 29 2016 01:00 UTC - Thursday Jun 30 2016 02:00 UTC
Forecast type:
FROM: standard forecast or significant change
Winds:
variable wind direction at 6.9 mph (6 knots: 3.1 m/s)
Visibility:
Ceiling:
at least 12,000 feet AGL
Clouds:
Scattered Clouds at 8,000 feet AGL
Weather:
no significant weather observed at this time
TAF text:
2901/2902 6000 TSRA BKN030CB BECMG 2902/2903 05006KT 9999 SCT030 QNH2992INS BECMG 2908/2909 23006KT 9999 BKN015 QNH2994INS BECMG 2914/2915 32012KT 9999 BKN020 QNH2995INS BECMG 2917/2918 33012KT 8000 -SHRA BKN020 QNH2991INS
Forecast period:
Thursday Jun 30 2016 01:00 UTC - Thursday Jun 30 2016 02:00 UTC
Forecast type:
FROM: standard forecast or significant change
Winds:
from the NNW (330 degrees) at 13.8 mph (12 knots: 6.2 m/s)
Visibility:
Ceiling:
at least 12,000 feet AGL
1,500 feet AGL
2,000 feet AGL
2,000 feet AGL
Clouds:
Scattered Clouds at 3,000 feet AGL
Broken Cloud Cover at 1,500 feet AGL
Broken Cloud Cover at 2,000 feet AGL
Broken Cloud Cover at 2,000 feet AGL
Weather:
Moderate Thunderstorm Rain
FBO's on the Field
FBO Company Facility Photos Services Transportation Aviation Fuel Prices: Prices include tax
Catering Weather Repair Courtesy Rental Type 100LL JetA JetA+ MOGAS 8087
 
Harvey & Rihn Aviation

This FBO has not yet been rated
FS:Independent
Last Updated: May-27
Login to update fuel prices
SS:
Contact Harvey & Rihn AviationMore FBO Information
 
Tri-Star Aviation

This FBO has not yet been rated
FS:Avfuel
Last Updated: May-26
Login to update fuel prices
SS:
Contact Tri-Star AviationMore FBO Information
 
Add another FBO Facility Photos Catering Weather Repair Courtesy Rental Type 100LL JetA JetA+ MOGAS 8087
Services Transportation Aviation Fuel Prices: Prices include tax


model-print
model-print
model-print
model-print